Time;durP1;ratioP1;P1;durP2;ratioP2;P2;SDS_P1;SDS_P2;PMS_P1;PMS_P2;Temp;Humidity;BMP_temperature;BMP_pressure;BME280_temperature;BME280_humidity;BME280_pressure;Samples;Min_cycle;Max_cycle;Signal;HPM_P1;HPM_P2
2022/05/22 00:00:19;;;;;;;4.10;1.87;;;12.90;99.90;;;13.93;100.00;98378.75;5002806;28;20479;-76
2022/05/22 00:02:49;;;;;;;5.43;2.10;;;12.90;99.90;;;13.87;100.00;98378.72;5001247;28;20509;-76
2022/05/22 00:05:22;;;;;;;3.27;2.00;;;12.90;99.90;;;13.85;100.00;98383.41;5000373;28;20470;-76
2022/05/22 00:07:53;;;;;;;2.53;1.83;;;12.80;99.90;;;13.83;100.00;98372.25;5001887;28;20463;-76
2022/05/22 00:10:23;;;;;;;4.23;1.70;;;12.80;99.90;;;13.85;100.00;98367.63;4998164;28;20469;-76
2022/05/22 00:12:53;;;;;;;6.67;1.97;;;12.70;99.90;;;13.82;100.00;98373.25;4998937;28;20466;-76
2022/05/22 00:15:23;;;;;;;1.80;1.70;;;12.70;99.90;;;13.75;100.00;98377.69;4999918;28;20471;-76
2022/05/22 00:17:53;;;;;;;2.13;1.60;;;12.70;99.90;;;13.72;100.00;98380.72;5000637;28;21126;-76
2022/05/22 00:20:23;;;;;;;2.83;1.83;;;12.60;99.90;;;13.69;100.00;98381.94;4999618;28;21016;-76
2022/05/22 00:22:55;;;;;;;3.40;1.80;;;12.70;99.90;;;13.66;100.00;98377.06;5000568;28;20495;-76
2022/05/22 00:25:25;;;;;;;3.97;1.53;;;12.60;99.90;;;13.63;100.00;98384.53;4999773;28;20467;-76
2022/05/22 00:27:55;;;;;;;12.13;1.97;;;12.60;99.90;;;13.57;100.00;98376.41;4998339;28;20471;-76
2022/05/22 00:30:25;;;;;;;3.33;2.17;;;12.60;99.90;;;13.55;100.00;98375.81;4997422;28;20523;-76
2022/05/22 00:32:55;;;;;;;2.20;1.97;;;12.50;99.90;;;13.51;100.00;98379.84;5001385;28;20459;-76
2022/05/22 00:35:25;;;;;;;2.77;2.30;;;12.50;99.90;;;13.42;100.00;98375.78;4998758;28;20486;-76
2022/05/22 00:37:55;;;;;;;3.20;1.93;;;12.50;99.90;;;13.39;100.00;98370.13;5003171;28;20499;-76
2022/05/22 00:40:25;;;;;;;7.07;1.90;;;12.50;99.90;;;13.37;100.00;98365.03;5000925;28;20490;-75
2022/05/22 00:42:54;;;;;;;5.27;1.83;;;12.40;99.90;;;13.34;100.00;98365.44;4999877;28;20452;-76
2022/05/22 00:45:25;;;;;;;3.10;1.70;;;12.40;99.90;;;13.36;100.00;98360.00;5000229;28;20482;-76
2022/05/22 00:47:54;;;;;;;2.60;1.87;;;12.40;99.90;;;13.34;100.00;98367.25;5000983;28;21055;-76
2022/05/22 00:50:24;;;;;;;2.47;1.80;;;12.30;99.90;;;13.30;100.00;98373.91;5001599;28;20501;-76
2022/05/22 00:52:58;;;;;;;5.80;1.83;;;12.30;99.90;;;13.22;100.00;98374.09;5001086;28;20496;-76
2022/05/22 00:55:34;;;;;;;3.10;1.90;;;12.30;99.90;;;13.15;100.00;98371.44;4999655;28;21004;-76
2022/05/22 00:58:11;;;;;;;2.93;1.90;;;12.30;99.90;;;13.13;100.00;98365.56;5001283;28;20560;-76
2022/05/22 01:00:42;;;;;;;4.03;1.87;;;12.20;99.90;;;13.09;100.00;98361.69;4997858;28;20546;-76
2022/05/22 01:03:29;;;;;;;6.00;2.13;;;12.20;99.90;;;13.04;100.00;98358.81;4999936;28;20605;-76
2022/05/22 01:06:06;;;;;;;12.70;2.27;;;12.10;99.90;;;13.02;100.00;98351.13;4999383;28;21021;-76
2022/05/22 01:08:39;;;;;;;2.80;1.80;;;12.10;99.90;;;13.00;100.00;98352.34;4998682;28;20490;-75
2022/05/22 01:11:13;;;;;;;3.80;1.67;;;12.10;99.90;;;12.92;100.00;98350.69;4999930;28;20494;-76
2022/05/22 01:13:48;;;;;;;3.47;1.50;;;12.00;99.90;;;12.90;100.00;98349.25;4996765;28;20521;-76
2022/05/22 01:16:18;;;;;;;2.97;1.90;;;12.00;99.90;;;12.91;100.00;98348.25;4998899;28;20480;-76
2022/05/22 01:18:54;;;;;;;2.10;1.87;;;11.90;99.90;;;12.92;100.00;98350.69;4998662;28;20554;-76
2022/05/22 01:21:28;;;;;;;8.03;1.93;;;11.90;99.90;;;12.89;100.00;98340.56;4997503;28;20610;-76
2022/05/22 01:23:59;;;;;;;2.07;1.60;;;11.90;99.90;;;12.89;100.00;98339.75;4998275;28;20509;-76
2022/05/22 01:26:31;;;;;;;11.23;2.53;;;11.90;99.90;;;12.85;100.00;98343.75;4998238;28;20463;-75
2022/05/22 01:29:02;;;;;;;4.30;1.63;;;11.90;99.90;;;12.85;100.00;98339.34;4998439;28;20451;-76
2022/05/22 01:31:31;;;;;;;3.30;1.97;;;11.80;99.90;;;12.78;100.00;98342.91;4997464;28;20467;-76
2022/05/22 01:34:01;;;;;;;6.80;2.03;;;11.80;99.90;;;12.78;100.00;98340.28;4999628;28;20521;-75
2022/05/22 01:36:32;;;;;;;3.60;1.97;;;11.60;99.90;;;12.75;100.00;98356.44;4999524;28;20891;-76
2022/05/22 01:39:04;;;;;;;2.80;1.67;;;11.70;99.90;;;12.72;100.00;98351.56;5000380;28;20499;-76
2022/05/22 01:41:34;;;;;;;2.13;1.57;;;11.80;99.90;;;12.68;100.00;98343.28;4999630;28;20506;-76
2022/05/22 01:44:04;;;;;;;3.00;1.57;;;11.80;99.90;;;12.63;100.00;98339.63;4997766;28;20471;-76
2022/05/22 01:46:33;;;;;;;2.53;1.70;;;11.70;99.90;;;12.55;100.00;98328.28;4997325;28;20526;-76
2022/05/22 01:49:03;;;;;;;4.30;2.00;;;11.70;99.90;;;12.51;100.00;98324.41;4995774;28;20981;-76
2022/05/22 01:51:39;;;;;;;6.63;1.70;;;11.60;99.90;;;12.51;100.00;98331.47;4998599;28;20504;-76
2022/05/22 01:54:10;;;;;;;2.17;1.90;;;11.50;99.90;;;12.48;100.00;98332.66;4999109;28;20459;-76
2022/05/22 01:56:40;;;;;;;3.53;2.00;;;11.50;99.90;;;12.42;100.00;98317.69;5000048;28;20478;-76
2022/05/22 01:59:10;;;;;;;10.97;1.80;;;11.50;99.90;;;12.44;100.00;98320.13;5000461;28;20481;-76
2022/05/22 02:01:40;;;;;;;1.80;1.50;;;11.40;99.90;;;12.47;100.00;98320.53;4996251;28;20509;-76
2022/05/22 02:04:09;;;;;;;5.77;1.83;;;11.40;99.90;;;12.39;100.00;98315.44;4997244;28;20490;-76
2022/05/22 02:08:18;;;;;;;2.60;1.70;;;11.40;99.90;;;12.35;100.00;98321.28;4996486;28;20500;-76
2022/05/22 02:09:30;;;;;;;5.13;1.77;;;11.40;99.90;;;12.36;100.00;98328.94;4998471;28;20487;-76
2022/05/22 02:12:00;;;;;;;4.30;1.70;;;11.40;99.90;;;12.36;100.00;98323.69;4997623;28;21155;-76
2022/05/22 02:14:29;;;;;;;6.90;1.83;;;11.30;99.90;;;12.30;100.00;98319.22;4999562;28;20463;-76
2022/05/22 02:17:00;;;;;;;4.47;2.00;;;11.30;99.90;;;12.28;100.00;98309.94;4999461;28;20475;-76
2022/05/22 02:19:30;;;;;;;5.10;1.70;;;11.20;99.90;;;12.26;100.00;98307.47;4998377;28;20466;-76
2022/05/22 02:21:59;;;;;;;4.60;1.93;;;11.30;99.90;;;12.23;100.00;98305.25;4999426;28;21038;-76
2022/05/22 02:24:31;;;;;;;4.07;1.67;;;11.30;99.90;;;12.19;100.00;98296.13;5000254;28;20456;-76
2022/05/22 02:27:06;;;;;;;3.77;1.87;;;11.30;99.90;;;12.21;100.00;98294.16;4999274;28;20448;-76
2022/05/22 02:29:36;;;;;;;3.23;1.83;;;11.20;99.90;;;12.21;100.00;98295.97;4999822;28;20439;-76
2022/05/22 02:32:08;;;;;;;3.23;1.73;;;11.30;99.90;;;12.15;100.00;98305.38;5000292;28;20465;-76
2022/05/22 02:34:39;;;;;;;5.40;1.90;;;11.20;99.90;;;12.13;100.00;98290.84;4999945;28;20455;-76
2022/05/22 02:37:09;;;;;;;2.30;1.50;;;11.20;99.90;;;12.09;100.00;98296.47;5001325;28;20459;-76
2022/05/22 02:39:41;;;;;;;2.13;1.30;;;11.20;99.90;;;12.11;100.00;98288.44;4998195;28;20478;-76
2022/05/22 02:42:10;;;;;;;5.00;2.10;;;11.10;99.90;;;12.16;100.00;98290.47;5000488;28;20969;-76
2022/05/22 02:44:40;;;;;;;2.70;1.97;;;11.10;99.90;;;12.13;100.00;98291.66;5002650;28;20479;-75
2022/05/22 02:47:10;;;;;;;6.00;2.00;;;11.10;99.90;;;12.09;100.00;98288.63;4997576;28;20514;-76
2022/05/22 02:49:40;;;;;;;1.77;1.50;;;11.10;99.90;;;12.06;100.00;98285.56;4997201;28;20466;-76
2022/05/22 02:52:11;;;;;;;2.40;1.73;;;11.10;99.90;;;12.00;100.00;98287.13;4998710;28;20467;-76
2022/05/22 02:54:42;;;;;;;1.63;1.50;;;11.10;99.90;;;11.97;100.00;98282.28;4998245;28;20467;-76
2022/05/22 02:57:11;;;;;;;8.33;1.70;;;11.00;99.90;;;11.97;100.00;98276.22;4999124;28;20465;-76
2022/05/22 02:59:42;;;;;;;3.30;1.60;;;11.00;99.90;;;11.97;100.00;98278.84;4997232;28;20463;-76
2022/05/22 03:02:15;;;;;;;2.20;1.80;;;11.00;99.90;;;11.91;100.00;98277.78;4998713;28;20562;-76
2022/05/22 03:04:48;;;;;;;4.47;1.87;;;11.00;99.90;;;11.89;100.00;98281.59;4999789;28;20521;-75
2022/05/22 03:07:20;;;;;;;2.27;1.77;;;11.00;99.90;;;11.82;100.00;98270.25;4999065;28;20474;-76
2022/05/22 03:09:51;;;;;;;5.43;1.77;;;10.90;99.90;;;11.78;100.00;98276.88;4996818;28;21012;-76
2022/05/22 03:12:25;;;;;;;3.13;1.90;;;10.90;99.90;;;11.78;100.00;98271.63;4996257;28;20458;-76
2022/05/22 03:14:59;;;;;;;5.87;1.50;;;10.80;99.90;;;11.77;100.00;98268.19;5003786;28;20463;-76
2022/05/22 03:17:28;;;;;;;2.90;1.97;;;10.80;99.90;;;11.73;100.00;98276.63;5001109;28;20459;-76
2022/05/22 03:19:57;;;;;;;2.20;1.63;;;10.90;99.90;;;11.74;100.00;98271.19;5000582;28;20516;-76
2022/05/22 03:22:26;;;;;;;2.00;1.80;;;10.80;99.90;;;11.70;100.00;98269.91;5002418;28;20521;-75
2022/05/22 03:24:58;;;;;;;3.23;1.43;;;10.80;99.90;;;11.65;100.00;98266.25;5001055;28;20470;-75
2022/05/22 03:27:27;;;;;;;14.33;2.37;;;10.80;99.90;;;11.63;100.00;98268.25;4998793;28;20463;-76
2022/05/22 03:29:56;;;;;;;2.07;1.77;;;10.70;99.90;;;11.62;100.00;98270.06;5001158;28;20509;-76
2022/05/22 03:32:26;;;;;;;4.20;1.80;;;10.70;99.90;;;11.61;100.00;98271.88;5000360;28;20977;-76
2022/05/22 03:34:59;;;;;;;5.17;1.90;;;10.70;99.90;;;11.60;100.00;98266.78;5001236;28;20460;-76
2022/05/22 03:37:29;;;;;;;2.03;1.60;;;10.70;99.90;;;11.63;100.00;98255.16;5001320;28;20454;-76
2022/05/22 03:40:00;;;;;;;5.53;1.80;;;10.70;99.90;;;11.61;100.00;98250.09;5002353;28;20873;-76
2022/05/22 03:42:29;;;;;;;2.00;1.80;;;10.60;99.90;;;11.60;100.00;98256.31;5001107;28;21159;-76
2022/05/22 03:45:00;;;;;;;2.57;1.50;;;10.60;99.90;;;11.58;100.00;98256.53;4999071;28;20444;-76
2022/05/22 03:47:30;;;;;;;2.80;1.80;;;10.60;99.90;;;11.56;100.00;98248.03;5001169;28;21178;-76
2022/05/22 03:50:04;;;;;;;2.30;1.70;;;10.60;99.90;;;11.53;100.00;98237.94;5001133;28;20484;-76
2022/05/22 03:52:36;;;;;;;1.93;1.60;;;10.60;99.90;;;11.53;100.00;98237.94;5001584;28;20961;-76
2022/05/22 03:55:12;;;;;;;3.37;2.10;;;10.60;99.90;;;11.57;100.00;98235.75;5000104;28;20460;-76
2022/05/22 03:57:47;;;;;;;3.80;1.93;;;10.50;99.90;;;11.55;100.00;98220.25;5003320;28;20815;-76
2022/05/22 04:00:23;;;;;;;1.90;1.67;;;10.50;99.90;;;11.54;100.00;98216.00;4998765;28;20462;-76
2022/05/22 04:02:52;;;;;;;2.33;1.70;;;10.50;99.90;;;11.54;100.00;98217.78;4998622;28;20502;-76
2022/05/22 04:05:22;;;;;;;6.50;1.80;;;10.50;99.90;;;11.54;100.00;98231.69;4998840;28;20506;-76
2022/05/22 04:07:53;;;;;;;1.93;1.70;;;10.50;99.90;;;11.51;100.00;98233.88;5001932;28;20463;-76
2022/05/22 04:10:24;;;;;;;7.03;1.97;;;10.50;99.90;;;11.48;100.00;98232.47;4999569;28;20954;-76
2022/05/22 04:12:54;;;;;;;4.37;1.97;;;10.50;99.90;;;11.50;100.00;98224.41;4998646;28;20455;-76
2022/05/22 04:15:25;;;;;;;1.90;1.50;;;10.50;99.90;;;11.49;100.00;98226.22;5003682;28;20525;-76
2022/05/22 04:17:57;;;;;;;2.30;1.80;;;10.60;99.90;;;11.50;100.00;98222.59;4998397;28;21039;-76
2022/05/22 04:20:27;;;;;;;4.73;1.87;;;10.50;99.90;;;11.54;100.00;98223.84;4996821;28;20463;-76
2022/05/22 04:25:55;;;;;;;3.80;2.30;;;10.50;99.90;;;11.53;100.00;98214.34;4999165;28;20993;-76
2022/05/22 04:28:26;;;;;;;2.33;1.87;;;10.60;99.90;;;11.56;100.00;98211.34;5001331;28;20520;-76
2022/05/22 04:30:56;;;;;;;9.30;2.07;;;10.60;99.90;;;11.59;100.00;98200.50;4999611;28;20476;-76
2022/05/22 04:33:27;;;;;;;2.93;1.90;;;10.60;99.90;;;11.61;100.00;98208.19;4999957;28;20517;-76
2022/05/22 04:35:56;;;;;;;4.47;2.00;;;10.50;99.90;;;11.61;100.00;98206.38;5001647;28;20446;-76
2022/05/22 04:38:27;;;;;;;3.00;2.00;;;10.50;99.90;;;11.65;100.00;98206.81;5000600;28;20439;-76
2022/05/22 04:41:01;;;;;;;3.43;1.90;;;10.60;99.90;;;11.68;100.00;98205.63;5001687;28;20451;-76
2022/05/22 04:43:33;;;;;;;4.23;2.30;;;10.70;99.90;;;11.69;100.00;98204.63;4999264;28;20498;-76
2022/05/22 04:46:06;;;;;;;2.63;1.90;;;10.70;99.90;;;11.72;100.00;98199.03;4999827;28;20443;-76
2022/05/22 04:48:38;;;;;;;3.30;1.80;;;10.70;99.90;;;11.75;100.00;98203.88;5001572;28;20877;-76
2022/05/22 04:51:09;;;;;;;2.70;1.40;;;10.70;99.90;;;11.78;100.00;98204.31;4999271;28;20463;-76
2022/05/22 04:53:39;;;;;;;3.17;1.70;;;10.80;99.90;;;11.80;100.00;98212.00;5002104;28;20498;-77
2022/05/22 04:56:11;;;;;;;2.60;1.77;;;10.80;99.90;;;11.81;100.00;98205.72;5000571;28;20446;-76
2022/05/22 04:58:41;;;;;;;17.43;1.70;;;10.80;99.90;;;11.83;100.00;98217.66;5005687;28;20455;-76
2022/05/22 05:01:12;;;;;;;3.30;1.70;;;10.90;99.90;;;11.85;100.00;98214.84;5004301;28;20440;-76
2022/05/22 05:03:42;;;;;;;2.30;1.53;;;10.90;99.90;;;11.86;100.00;98219.91;5005050;28;20506;-76
2022/05/22 05:06:13;;;;;;;5.57;2.30;;;10.90;99.90;;;11.88;100.00;98214.47;5004585;28;20456;-76
2022/05/22 05:08:42;;;;;;;2.67;2.00;;;11.00;99.90;;;11.85;100.00;98225.31;5003515;28;20506;-77
2022/05/22 05:11:14;;;;;;;7.53;1.70;;;11.00;99.90;;;11.87;100.00;98218.88;5005339;28;20444;-76
2022/05/22 05:13:44;;;;;;;7.60;1.83;;;11.00;99.90;;;11.92;100.00;98216.50;5004001;28;20448;-77
2022/05/22 05:16:16;;;;;;;5.47;2.20;;;11.00;99.90;;;11.97;100.00;98223.81;4999749;28;20537;-76
2022/05/22 05:18:46;;;;;;;6.40;2.13;;;11.10;99.90;;;12.02;100.00;98224.84;5000699;28;20971;-77
2022/05/22 05:21:19;;;;;;;3.33;1.97;;;11.00;99.90;;;12.05;100.00;98227.06;4998807;28;20471;-88
2022/05/22 05:23:50;;;;;;;26.33;9.77;;;11.10;99.90;;;12.06;100.00;98230.50;5000018;28;21069;-76
2022/05/22 05:26:22;;;;;;;2.83;2.20;;;11.10;99.90;;;12.12;100.00;98232.34;5000064;28;20498;-77
2022/05/22 05:28:51;;;;;;;2.83;2.13;;;11.20;99.90;;;12.16;100.00;98236.22;4999022;28;20524;-77
2022/05/22 05:31:23;;;;;;;6.60;2.37;;;11.20;99.90;;;12.22;100.00;98232.81;4996912;28;20521;-76
2022/05/22 05:33:53;;;;;;;2.80;2.30;;;11.30;99.90;;;12.25;100.00;98229.81;4999383;28;20454;-77
2022/05/22 05:36:23;;;;;;;5.70;2.23;;;11.30;99.90;;;12.28;100.00;98226.84;4997957;28;20500;-76
2022/05/22 05:38:53;;;;;;;8.70;1.60;;;11.40;99.90;;;12.30;100.00;98224.81;4999216;28;20565;-76
2022/05/22 05:41:29;;;;;;;3.40;1.90;;;11.50;99.90;;;12.34;100.00;98223.44;4999658;28;20499;-76
2022/05/22 05:44:01;;;;;;;4.80;1.70;;;11.50;99.90;;;12.38;100.00;98227.28;4999325;28;20498;-76
2022/05/22 05:46:30;;;;;;;2.13;1.80;;;11.50;99.90;;;12.40;100.00;98217.41;4996823;28;20550;-76
2022/05/22 05:49:07;;;;;;;3.33;1.70;;;11.60;99.90;;;12.44;100.00;98226.50;5001091;28;20475;-76
2022/05/22 05:51:40;;;;;;;1.97;1.77;;;11.60;99.90;;;12.50;100.00;98217.84;4993230;28;20514;-77
2022/05/22 05:54:11;;;;;;;4.07;2.03;;;11.60;99.90;;;12.54;100.00;98221.72;4998321;28;20560;-76
2022/05/22 05:56:46;;;;;;;2.90;1.80;;;11.70;99.90;;;12.58;100.00;98219.50;4998660;28;20459;-76
2022/05/22 05:59:15;;;;;;;8.97;2.27;;;11.80;99.90;;;12.63;100.00;98217.13;4998522;28;20456;-76
2022/05/22 06:01:45;;;;;;;2.00;1.60;;;11.80;99.90;;;12.69;100.00;98216.34;4995221;28;20833;-76
2022/05/22 06:04:16;;;;;;;7.00;2.57;;;11.80;99.90;;;12.73;100.00;98214.13;4998516;28;20506;-76
2022/05/22 06:06:48;;;;;;;5.77;2.30;;;11.90;99.90;;;12.79;100.00;98215.97;4996594;28;20483;-76
2022/05/22 06:09:19;;;;;;;5.43;1.80;;;11.90;99.90;;;12.84;100.00;98216.97;4997973;28;20462;-77
2022/05/22 06:11:54;;;;;;;3.67;2.00;;;11.90;99.90;;;12.90;100.00;98210.16;4997406;28;20477;-76
2022/05/22 06:14:25;;;;;;;6.47;2.23;;;12.00;99.90;;;12.95;100.00;98208.53;4997336;28;20471;-88
2022/05/22 06:16:56;;;;;;;11.50;5.90;;;12.00;99.90;;;13.02;100.00;98208.53;4998033;28;20949;-77
2022/05/22 06:22:10;;;;;;;7.53;2.37;;;12.10;99.90;;;13.15;100.00;98208.63;4997412;28;20471;-76
2022/05/22 06:24:41;;;;;;;4.20;1.97;;;12.20;99.90;;;13.20;100.00;98211.44;4996499;28;20480;-76
2022/05/22 06:27:14;;;;;;;7.53;2.40;;;12.30;99.90;;;13.25;100.00;98219.56;4996860;28;20901;-77
2022/05/22 06:29:44;;;;;;;4.27;2.30;;;12.30;99.90;;;13.30;100.00;98227.63;4999976;28;20914;-76
2022/05/22 06:32:18;;;;;;;4.63;2.23;;;12.40;99.90;;;13.37;100.00;98214.50;4995910;28;20471;-76
2022/05/22 06:34:48;;;;;;;3.53;1.70;;;12.40;99.90;;;13.40;100.00;98207.03;4996767;28;21039;-77
2022/05/22 06:37:25;;;;;;;4.50;2.27;;;12.50;99.90;;;13.47;100.00;98210.47;4995834;28;20992;-77
2022/05/22 06:39:55;;;;;;;5.47;2.70;;;12.60;99.90;;;13.53;100.00;98209.69;4997492;28;20526;-76
2022/05/22 06:42:29;;;;;;;2.90;2.00;;;12.60;99.90;;;13.58;100.00;98196.75;4997527;28;20503;-76
2022/05/22 06:45:03;;;;;;;3.43;2.30;;;12.70;99.90;;;13.64;100.00;98191.69;4998085;28;20490;-76
2022/05/22 06:47:36;;;;;;;10.93;2.10;;;12.70;99.90;;;13.71;100.00;98187.25;4999562;28;21074;-76
2022/05/22 06:50:13;;;;;;;3.87;1.97;;;12.80;99.90;;;13.78;100.00;98190.69;5001210;28;20477;-77
2022/05/22 06:52:45;;;;;;;4.33;2.43;;;12.90;99.90;;;13.82;100.00;98183.97;5002309;28;20459;-76
2022/05/22 06:55:19;;;;;;;8.33;4.27;;;12.90;99.90;;;13.89;100.00;98184.78;5001503;28;20557;-77
2022/05/22 06:57:50;;;;;;;4.10;2.70;;;13.00;99.90;;;13.96;100.00;98182.97;5002428;28;20548;-77
2022/05/22 07:00:21;;;;;;;2.60;1.90;;;13.10;99.90;;;14.01;100.00;98176.09;5000542;28;20458;-77
2022/05/22 07:02:52;;;;;;;9.20;1.70;;;13.10;99.90;;;14.08;100.00;98171.63;4999740;28;20505;-77
2022/05/22 07:05:22;;;;;;;3.03;2.20;;;13.20;99.90;;;14.14;100.00;98167.34;4997828;28;20492;-76
2022/05/22 07:07:51;;;;;;;2.53;1.60;;;13.30;99.90;;;14.20;100.00;98166.50;5000290;28;20467;-77
2022/05/22 07:11:38;;;;;;;6.13;2.00;;;13.30;99.90;;;14.27;100.00;98154.16;4998924;28;20473;-77
2022/05/22 07:13:19;;;;;;;7.70;1.93;;;13.40;99.90;;;14.33;100.00;98145.44;5022203;28;20466;-76
2022/05/22 07:15:59;;;;;;;5.70;2.53;;;13.50;99.90;;;14.40;100.00;98151.53;5017335;28;20512;-76
2022/05/22 07:18:50;;;;;;;24.47;13.00;;;13.60;99.90;;;14.47;100.00;98152.28;5021023;28;20544;-76
2022/05/22 07:21:19;;;;;;;5.93;2.67;;;13.70;99.90;;;14.55;100.00;98149.41;5018648;28;20462;-77
2022/05/22 07:23:49;;;;;;;4.10;2.27;;;13.70;99.90;;;14.62;100.00;98154.66;5018949;28;20488;-77
2022/05/22 07:26:21;;;;;;;11.33;2.20;;;13.80;99.90;;;14.68;100.00;98140.66;5021014;28;20467;-76
2022/05/22 07:28:53;;;;;;;7.73;2.10;;;13.90;99.90;;;14.76;100.00;98139.59;5019661;28;20449;-76
2022/05/22 07:31:27;;;;;;;8.60;2.50;;;14.00;99.90;;;14.84;100.00;98147.25;5019600;28;20923;-76
2022/05/22 07:34:00;;;;;;;4.73;1.93;;;14.00;99.90;;;14.92;100.00;98149.66;5021412;28;20465;-76
2022/05/22 07:36:29;;;;;;;3.03;1.60;;;14.20;99.90;;;14.98;100.00;98154.88;5020736;28;20469;-76
2022/05/22 07:38:58;;;;;;;5.23;2.03;;;14.20;99.90;;;15.02;100.00;98137.63;5021799;28;20472;-76
2022/05/22 07:41:27;;;;;;;4.13;2.00;;;14.30;99.90;;;15.11;100.00;98138.97;5020108;28;20470;-76
2022/05/22 07:43:58;;;;;;;4.30;1.40;;;14.40;99.90;;;15.19;100.00;98147.63;5020610;28;20568;-76
2022/05/22 07:46:28;;;;;;;2.83;1.50;;;14.50;99.90;;;15.24;100.00;98148.59;5019215;28;20880;-75
2022/05/22 07:48:57;;;;;;;32.67;19.17;;;14.60;99.90;;;15.30;100.00;98142.50;5019494;28;20478;-76
2022/05/22 07:51:27;;;;;;;7.77;2.10;;;14.70;99.90;;;15.41;100.00;98136.50;5019696;28;20984;-76
2022/05/22 07:53:58;;;;;;;3.47;1.73;;;14.80;99.90;;;15.47;100.00;98135.66;5022090;28;20458;-86
2022/05/22 07:56:29;;;;;;;8.70;4.33;;;14.90;99.90;;;15.54;100.00;98133.00;5022472;28;20496;-76
2022/05/22 07:59:01;;;;;;;5.57;1.70;;;15.00;99.90;;;15.59;100.00;98126.03;5020656;28;20442;-76
2022/05/22 08:01:31;;;;;;;3.10;1.50;;;15.00;99.90;;;15.68;100.00;98125.78;5021816;28;20873;-76
2022/05/22 08:04:00;;;;;;;4.60;1.60;;;15.00;99.90;;;15.75;100.00;98118.63;5020867;28;20562;-76
2022/05/22 08:06:30;;;;;;;4.57;1.80;;;15.10;99.90;;;15.81;100.00;98117.72;5021048;28;20534;-76
2022/05/22 08:09:01;;;;;;;5.40;1.57;;;15.10;99.90;;;15.86;100.00;98115.25;5023229;28;21470;-76
2022/05/22 08:11:30;;;;;;;3.33;1.90;;;15.20;99.90;;;15.92;100.00;98109.09;5026557;28;20438;-76
2022/05/22 08:14:02;;;;;;;3.67;1.50;;;15.30;99.90;;;15.96;100.00;98107.66;5023735;28;20543;-76
2022/05/22 08:16:31;;;;;;;5.13;2.10;;;15.40;99.90;;;16.03;100.00;98100.47;5022179;28;20852;-77
2022/05/22 08:19:01;;;;;;;7.93;2.03;;;15.40;99.90;;;16.10;100.00;98104.63;5027712;28;20473;-76
2022/05/22 08:21:31;;;;;;;4.10;1.70;;;15.50;99.90;;;16.15;100.00;98093.41;5027901;28;21184;-76
2022/05/22 08:24:00;;;;;;;5.57;1.70;;;15.60;99.90;;;16.20;100.00;98090.13;5026949;28;20512;-76
2022/05/22 08:26:29;;;;;;;1.50;1.20;;;15.60;99.90;;;16.27;100.00;98096.13;5026309;28;20451;-76
2022/05/22 08:29:00;;;;;;;3.10;1.43;;;15.60;99.90;;;16.33;100.00;98088.13;5025022;28;20458;-76
2022/05/22 08:31:30;;;;;;;4.47;1.90;;;15.70;99.90;;;16.39;100.00;98089.84;5024931;28;20503;-76
2022/05/22 08:34:00;;;;;;;4.53;1.60;;;15.80;99.90;;;16.45;100.00;98081.03;5026359;28;20458;-76
2022/05/22 08:36:30;;;;;;;2.90;1.40;;;15.80;99.90;;;16.51;100.00;98082.81;5025066;28;20477;-76
2022/05/22 08:39:00;;;;;;;4.43;1.27;;;15.90;99.90;;;16.59;100.00;98076.44;5023768;28;20549;-77
2022/05/22 08:41:34;;;;;;;3.23;1.40;;;15.90;99.90;;;16.65;100.00;98074.72;5024698;28;20458;-76
2022/05/22 08:44:12;;;;;;;6.40;1.70;;;16.00;99.90;;;16.68;97.07;98069.81;5020186;28;20446;-76
2022/05/22 08:46:58;;;;;;;4.47;1.43;;;16.10;99.90;;;16.75;96.34;98061.78;5021839;28;20855;-76
2022/05/22 08:49:39;;;;;;;3.33;1.40;;;16.20;99.90;;;16.83;96.40;98067.56;5025686;28;20947;-76
2022/05/22 08:52:17;;;;;;;2.83;1.77;;;16.20;99.90;;;16.91;96.71;98071.69;5026356;28;20763;-76
2022/05/22 08:54:56;;;;;;;4.67;1.60;;;16.30;99.90;;;17.01;96.13;98069.28;5026252;28;20447;-76
2022/05/22 09:00:41;;;;;;;4.17;1.73;;;16.60;99.80;;;17.22;95.59;98052.91;5025571;28;20465;-76
2022/05/22 09:03:24;;;;;;;3.27;1.90;;;16.60;99.90;;;17.29;94.32;98058.88;5025028;28;20893;-76
2022/05/22 09:05:59;;;;;;;5.60;1.90;;;16.80;99.90;;;17.40;93.82;98058.09;5026567;28;20535;-76
2022/05/22 09:08:41;;;;;;;1.80;1.10;;;16.90;99.70;;;17.47;93.67;98053.47;5025455;28;20946;-76
2022/05/22 09:11:26;;;;;;;3.50;1.60;;;16.90;99.90;;;17.50;93.35;98055.66;5024685;28;20450;-76
2022/05/22 09:14:07;;;;;;;6.67;1.70;;;16.90;99.90;;;17.51;89.49;98041.41;5026499;28;20500;-76
2022/05/22 09:16:44;;;;;;;5.50;1.73;;;16.90;98.50;;;17.60;90.36;98041.88;5024555;28;20818;-76
2022/05/22 09:19:22;;;;;;;4.30;1.40;;;17.00;99.40;;;17.63;87.23;98046.75;5022987;28;20449;-76
2022/05/22 09:22:09;;;;;;;5.73;1.70;;;17.10;98.50;;;17.70;87.84;98042.09;5022460;28;20442;-77
2022/05/22 09:24:58;;;;;;;2.00;1.10;;;17.20;98.90;;;17.76;87.06;98032.44;5022203;28;20542;-76
2022/05/22 09:27:40;;;;;;;4.00;1.60;;;17.20;98.60;;;17.80;84.58;98034.41;5026070;28;21006;-76
2022/05/22 09:30:18;;;;;;;4.10;1.10;;;17.20;98.10;;;17.83;83.28;98035.78;5026359;28;20791;-76
2022/05/22 09:33:08;;;;;;;9.20;1.97;;;17.20;97.20;;;17.84;83.45;98026.81;5020948;28;20450;-76
2022/05/22 09:35:58;;;;;;;5.07;2.00;;;17.20;97.80;;;17.89;84.36;98027.69;5021378;28;20455;-76
2022/05/22 09:39:02;;;;;;;3.07;1.73;;;17.20;98.20;;;17.91;86.26;98022.19;5019447;28;20450;-76
2022/05/22 09:41:57;;;;;;;4.00;1.53;;;17.30;98.50;;;17.94;86.69;98014.59;5023167;28;21193;-77
2022/05/22 09:44:56;;;;;;;2.60;1.43;;;17.30;98.60;;;18.00;87.23;98012.84;5025638;28;20500;-76
2022/05/22 09:48:14;;;;;;;5.23;1.70;;;17.30;98.80;;;18.05;85.26;98015.56;5022328;28;20443;-76
2022/05/22 09:50:59;;;;;;;4.27;1.70;;;17.40;98.30;;;18.13;83.63;97996.66;5022730;28;20465;-76
2022/05/22 09:53:46;;;;;;;6.07;1.50;;;17.60;97.90;;;18.24;87.63;98003.75;5024850;28;20561;-76
2022/05/22 09:56:57;;;;;;;2.60;1.40;;;17.80;98.80;;;18.32;85.46;98000.75;5022954;28;20448;-76
2022/05/22 09:59:50;;;;;;;3.93;1.37;;;17.80;98.20;;;18.42;86.40;98000.13;5024021;28;20976;-76
2022/05/22 10:02:29;;;;;;;10.47;1.67;;;17.90;98.40;;;18.44;84.29;98004.13;5022211;28;20467;-76
2022/05/22 10:05:16;;;;;;;6.30;1.80;;;17.80;98.00;;;18.50;84.11;97997.91;5024819;28;20484;-76
2022/05/22 10:07:56;;;;;;;3.37;1.73;;;17.90;98.00;;;18.55;83.02;97999.84;5024304;28;20470;-76
2022/05/22 10:10:39;;;;;;;4.77;1.20;;;17.90;97.40;;;18.59;82.08;97991.19;5023700;28;20462;-76
2022/05/22 10:13:26;;;;;;;2.57;1.67;;;18.00;97.50;;;18.65;81.66;97988.59;5023873;28;20462;-76
2022/05/22 10:16:20;;;;;;;5.43;2.23;;;18.00;97.30;;;18.69;80.96;97979.16;5023545;28;20450;-76
2022/05/22 10:19:12;;;;;;;2.00;1.30;;;18.00;97.40;;;18.74;81.64;97979.25;5020718;28;20443;-76
2022/05/22 10:21:52;;;;;;;5.53;1.67;;;18.10;97.70;;;18.78;82.30;97981.16;5017389;28;20992;-77
2022/05/22 10:24:56;;;;;;;1.97;1.40;;;18.20;97.80;;;18.85;81.49;97988.94;5019080;28;20451;-76
2022/05/22 10:27:53;;;;;;;2.50;1.60;;;18.20;97.50;;;18.91;81.85;97988.00;5017786;28;20498;-77
2022/05/22 10:30:31;;;;;;;3.33;1.50;;;18.30;97.70;;;18.95;77.02;97973.22;5019910;28;20462;-77
2022/05/22 10:33:05;;;;;;;9.53;1.73;;;18.40;96.30;;;19.04;76.41;97966.44;5016723;28;20454;-76
2022/05/22 10:35:45;;;;;;;6.33;1.27;;;18.40;96.10;;;19.08;73.70;97962.28;5019366;28;20505;-76
2022/05/22 10:38:23;;;;;;;7.50;1.30;;;18.50;95.80;;;19.14;73.54;97955.19;5018626;28;20957;-76
2022/05/22 10:43:48;;;;;;;2.30;1.30;;;18.70;95.10;;;19.27;71.92;97950.34;5020521;28;20563;-76
2022/05/22 10:46:17;;;;;;;3.60;1.50;;;18.70;95.50;;;19.33;69.43;97945.91;5018550;28;20484;-76
2022/05/22 10:48:55;;;;;;;2.37;1.50;;;18.60;94.80;;;19.39;70.71;97944.94;5019611;28;20454;-77
2022/05/22 10:51:27;;;;;;;2.03;1.47;;;18.80;95.20;;;19.43;70.62;97943.44;5017766;28;20464;-76